« Back
NWS Peachtree City, Ga » Text Product » CSG Terminal Aerodrome Forecast


Printer-friendly Version
Current Version              Previous Versions:   1  2  3  4  5  6  7  8  9  

Terminal Aerodrome Forecast

751
FTUS42 KFFC 251127
TAFCSG
TAF
KCSG 251127Z 2512/2612 36007KT P6SM BKN040 OVC100
     FM251400 36007KT P6SM VCSH SCT035 BKN070
     FM252200 35006KT P6SM -SHRA SCT030 OVC050
     FM260200 35008KT 5SM -SHRA BR SCT012 OVC025
     FM260500 34008KT 4SM -SHRA BR SCT007 OVC012=



USA.gov is the U.S. government's official web portal to all federal, state and local government web resources and services.